createdAt,value
2022-09-27T04:00:48.976Z,99181.59
2022-09-27T04:03:51.754Z,99181.59
2022-09-27T04:06:54.470Z,99185.69
2022-09-27T04:09:57.690Z,99186.59
2022-09-27T04:13:00.467Z,99184.78
2022-09-27T04:16:03.485Z,99181.59
2022-09-27T04:19:07.582Z,99183.91
2022-09-27T04:22:15.942Z,99189.81
2022-09-27T04:25:19.797Z,99179.13
2022-09-27T04:28:22.654Z,99177.87
2022-09-27T04:31:25.026Z,99178.66
2022-09-27T04:34:47.547Z,99170.50
2022-09-27T04:37:49.727Z,99162.22
2022-09-27T04:40:52.159Z,99161.56
2022-09-27T04:44:00.227Z,99162.03
2022-09-27T04:47:02.568Z,99160.91
2022-09-27T04:50:05.049Z,99167.19
2022-09-27T04:53:07.396Z,99168.91
2022-09-27T04:56:10.063Z,99170.28
2022-09-27T04:59:12.882Z,99159.16
2022-09-27T05:02:15.428Z,99159.88
2022-09-27T05:05:18.553Z,99160.59
2022-09-27T05:08:21.083Z,99148.13
2022-09-27T05:11:28.478Z,99149.16
2022-09-27T05:14:39.944Z,99153.28
2022-09-27T05:17:42.467Z,99146.75
2022-09-27T05:20:53.341Z,99141.72
2022-09-27T05:23:56.273Z,99143.22
2022-09-27T05:26:58.606Z,99137.22
2022-09-27T05:30:01.924Z,99147.13
2022-09-27T05:33:06.547Z,99132.53
2022-09-27T05:36:12.083Z,99127.03
2022-09-27T05:39:16.642Z,99125.94
2022-09-27T05:42:19.581Z,99131.53
2022-09-27T05:45:23.401Z,99127.38
2022-09-27T05:48:26.292Z,99117.97
2022-09-27T05:51:32.238Z,99108.16
2022-09-27T05:54:35.734Z,99115.47
2022-09-27T05:57:39.433Z,99119.41
2022-09-27T06:00:43.434Z,99114.78
2022-09-27T06:03:47.996Z,99120.53
2022-09-27T06:06:50.765Z,99123.13
2022-09-27T06:09:53.235Z,99127.28
2022-09-27T06:13:03.665Z,99133.28
2022-09-27T06:16:09.842Z,99119.97
2022-09-27T06:19:13.010Z,99119.69
2022-09-27T06:22:15.690Z,99119.00
2022-09-27T06:25:18.534Z,99122.56
2022-09-27T06:28:25.572Z,99121.19
2022-09-27T06:31:30.595Z,99125.69
2022-09-27T06:34:33.946Z,99123.91
2022-09-27T06:37:35.982Z,99124.81
2022-09-27T06:40:38.352Z,99121.34
2022-09-27T06:43:40.672Z,99120.62
2022-09-27T06:46:43.494Z,99113.16
2022-09-27T06:49:47.504Z,99101.25
2022-09-27T06:52:50.716Z,99110.22
2022-09-27T06:55:55.653Z,99102.69
2022-09-27T06:59:16.700Z,99106.16
2022-09-27T07:02:27.876Z,99114.69
2022-09-27T07:05:31.113Z,99132.22
2022-09-27T07:08:35.727Z,99129.88
2022-09-27T07:11:38.162Z,99140.66
2022-09-27T07:14:40.231Z,99144.62
2022-09-27T07:17:46.132Z,99148.09
2022-09-27T07:20:48.196Z,99127.97
2022-09-27T07:23:51.040Z,99120.88
2022-09-27T07:26:53.279Z,99132.00
2022-09-27T07:29:55.894Z,99132.69
2022-09-27T07:33:00.908Z,99138.84
2022-09-27T07:36:08.292Z,99134.13
2022-09-27T07:39:11.071Z,99122.66
2022-09-27T07:42:15.703Z,99120.16
2022-09-27T07:45:18.469Z,99129.56
2022-09-27T07:48:21.999Z,99118.22
2022-09-27T07:51:24.186Z,99118.06
2022-09-27T07:54:26.617Z,99119.06
2022-09-27T07:57:30.089Z,99126.50
2022-09-27T08:00:32.909Z,99104.88
2022-09-27T08:03:36.100Z,99131.34
2022-09-27T08:06:38.558Z,99128.84
2022-09-27T08:09:41.124Z,99120.34
2022-09-27T08:12:43.703Z,99117.34
2022-09-27T08:15:46.262Z,99111.25
2022-09-27T08:18:48.501Z,99101.37
2022-09-27T08:21:58.720Z,99112.34
2022-09-27T08:25:04.101Z,99114.59
2022-09-27T08:28:06.561Z,99118.75
2022-09-27T08:31:08.758Z,99131.16
2022-09-27T08:34:12.322Z,99125.16
2022-09-27T08:37:14.757Z,99128.28
2022-09-27T08:40:17.718Z,99116.69
2022-09-27T08:43:32.933Z,99115.78
2022-09-27T08:47:00.635Z,99108.09
2022-09-27T08:50:09.001Z,99104.19
2022-09-27T08:53:14.026Z,99101.50
2022-09-27T08:56:21.136Z,99104.44
2022-09-27T08:59:28.586Z,99114.78
2022-09-27T09:02:31.146Z,99111.75
2022-09-27T09:05:35.599Z,99110.38
2022-09-27T09:09:19.885Z,99104.81
2022-09-27T09:12:48.610Z,99101.81
2022-09-27T09:16:15.930Z,99094.59
2022-09-27T09:19:26.673Z,99088.97
2022-09-27T09:22:43.153Z,99078.72
2022-09-27T09:25:51.841Z,99075.00
2022-09-27T09:29:07.768Z,99074.19
2022-09-27T09:32:28.693Z,99060.88
2022-09-27T09:35:41.489Z,99049.81
2022-09-27T09:38:56.011Z,99050.47
2022-09-27T09:42:13.449Z,99065.25
2022-09-27T09:45:22.767Z,99051.38
2022-09-27T09:48:43.358Z,99053.00
2022-09-27T09:51:52.905Z,99052.94
2022-09-27T09:55:03.553Z,99050.50
2022-09-27T09:58:33.409Z,99040.22
2022-09-27T10:01:44.455Z,99046.50
2022-09-27T10:04:46.814Z,99038.56
2022-09-27T10:07:51.338Z,99037.59
2022-09-27T10:10:53.863Z,99037.88
2022-09-27T10:13:58.342Z,99037.69
2022-09-27T10:17:04.079Z,99034.28
2022-09-27T10:20:07.427Z,99021.06
2022-09-27T10:23:15.216Z,99018.53
2022-09-27T10:26:19.866Z,99016.19
2022-09-27T10:29:37.364Z,99006.94
2022-09-27T10:32:42.183Z,99008.84
2022-09-27T10:35:49.572Z,99005.47
2022-09-27T10:38:54.720Z,99004.66
2022-09-27T10:41:57.833Z,99001.84
2022-09-27T10:45:26.838Z,98994.87
2022-09-27T10:48:29.316Z,98999.94
2022-09-27T10:51:31.905Z,98999.22
2022-09-27T10:54:37.488Z,98986.06
2022-09-27T10:57:44.308Z,99000.81
2022-09-27T11:01:03.607Z,99003.94
2022-09-27T11:04:20.495Z,98992.88
2022-09-27T11:07:24.119Z,98990.34
2022-09-27T11:10:36.296Z,98986.25
2022-09-27T11:13:40.933Z,98979.75
2022-09-27T11:16:58.549Z,98972.44
2022-09-27T11:20:25.836Z,98964.72
2022-09-27T11:23:48.941Z,98966.66
2022-09-27T11:27:26.927Z,98963.69
2022-09-27T11:30:42.386Z,98959.78
2022-09-27T11:34:12.018Z,98952.06
2022-09-27T11:37:20.594Z,98945.69
2022-09-27T11:40:55.261Z,98940.03
2022-09-27T11:44:09.800Z,98935.91
2022-09-27T11:47:30.277Z,98926.94
2022-09-27T11:50:59.904Z,98930.00
2022-09-27T11:54:09.341Z,98919.19
2022-09-27T11:57:26.997Z,98917.56
2022-09-27T12:01:11.290Z,98917.63
2022-09-27T12:04:48.142Z,98917.69
2022-09-27T12:08:00.516Z,98905.56
2022-09-27T12:11:15.030Z,98899.47
2022-09-27T12:14:26.930Z,98889.66
2022-09-27T12:17:35.929Z,98888.00
2022-09-27T12:20:41.033Z,98891.28
2022-09-27T12:23:49.448Z,98887.06
2022-09-27T12:26:57.449Z,98889.72
2022-09-27T12:30:00.954Z,98879.28
2022-09-27T12:34:04.780Z,98877.69
2022-09-27T12:37:21.915Z,98870.28
2022-09-27T12:40:38.786Z,98876.31
2022-09-27T12:43:49.009Z,98880.66
2022-09-27T12:47:17.586Z,98880.75
2022-09-27T12:50:46.128Z,98867.78
2022-09-27T12:53:56.179Z,98865.75
2022-09-27T12:57:18.642Z,98860.06
2022-09-27T13:00:27.696Z,98857.16
2022-09-27T13:03:32.776Z,98859.03
2022-09-27T13:06:50.750Z,98853.44
2022-09-27T13:10:24.781Z,98841.63
2022-09-27T13:13:27.724Z,98844.91
2022-09-27T13:16:30.187Z,98846.75
2022-09-27T13:19:36.810Z,98841.03
2022-09-27T13:22:40.254Z,98831.25
2022-09-27T13:25:56.233Z,98828.22
2022-09-27T13:29:03.132Z,98831.59
2022-09-27T13:32:16.302Z,98823.53
2022-09-27T13:35:25.542Z,98830.25
2022-09-27T13:38:28.704Z,98832.22
2022-09-27T13:41:46.673Z,98833.78
2022-09-27T13:45:17.477Z,98832.00
2022-09-27T13:48:25.418Z,98820.88
2022-09-27T13:51:34.183Z,98811.22
2022-09-27T13:54:41.649Z,98808.94
2022-09-27T13:58:00.221Z,98801.94
2022-09-27T14:01:16.098Z,98814.72
2022-09-27T14:04:35.277Z,98819.19
2022-09-27T14:07:42.095Z,98808.25
2022-09-27T14:10:45.935Z,98806.22
2022-09-27T14:13:49.792Z,98846.06
2022-09-27T14:16:54.253Z,98863.91
2022-09-27T14:19:57.338Z,98874.63
2022-09-27T14:23:01.178Z,98888.31
2022-09-27T14:26:03.932Z,98891.81
2022-09-27T14:29:19.419Z,98865.19
2022-09-27T14:32:31.538Z,98862.94
2022-09-27T14:35:53.358Z,98860.50
2022-09-27T14:38:58.729Z,98858.78
2022-09-27T14:42:04.607Z,98875.47
2022-09-27T14:45:20.478Z,98880.63
2022-09-27T14:48:28.089Z,98880.56
2022-09-27T14:51:31.891Z,98887.75
2022-09-27T14:54:34.206Z,98902.47
2022-09-27T14:57:37.085Z,98900.38
2022-09-27T15:00:41.347Z,98904.94
2022-09-27T15:03:45.511Z,98889.94
2022-09-27T15:06:49.580Z,98879.06
2022-09-27T15:09:51.991Z,98889.78
2022-09-27T15:12:59.760Z,98897.44
2022-09-27T15:16:17.225Z,98905.63
2022-09-27T15:19:29.498Z,98915.47
2022-09-27T15:22:49.613Z,98911.53
2022-09-27T15:26:16.345Z,98909.22
2022-09-27T15:29:23.882Z,98916.88
2022-09-27T15:32:28.929Z,98906.75
2022-09-27T15:35:34.793Z,98928.16
